sensor_id;sensor_type;location;lat;lon;timestamp;P1;durP1;ratioP1;P2;durP2;ratioP2
52776;SDS011;38656;54.260;20.822;2022-09-06T00:00:09;3.65;;;3.28;;
52776;SDS011;38656;54.260;20.822;2022-09-06T00:02:36;5.07;;;3.40;;
52776;SDS011;38656;54.260;20.822;2022-09-06T00:05:02;4.40;;;3.38;;
52776;SDS011;38656;54.260;20.822;2022-09-06T00:07:28;5.45;;;3.50;;
52776;SDS011;38656;54.260;20.822;2022-09-06T00:09:54;6.85;;;3.92;;
52776;SDS011;38656;54.260;20.822;2022-09-06T00:12:21;23.40;;;13.52;;
52776;SDS011;38656;54.260;20.822;2022-09-06T00:14:47;31.20;;;19.73;;
52776;SDS011;38656;54.260;20.822;2022-09-06T00:17:13;47.80;;;28.30;;
52776;SDS011;38656;54.260;20.822;2022-09-06T00:19:39;37.45;;;26.65;;
52776;SDS011;38656;54.260;20.822;2022-09-06T00:22:05;34.33;;;24.90;;
52776;SDS011;38656;54.260;20.822;2022-09-06T00:24:31;11.50;;;8.82;;
52776;SDS011;38656;54.260;20.822;2022-09-06T00:26:57;10.13;;;7.80;;
52776;SDS011;38656;54.260;20.822;2022-09-06T00:29:23;9.23;;;6.75;;
52776;SDS011;38656;54.260;20.822;2022-09-06T00:31:49;7.55;;;5.00;;
52776;SDS011;38656;54.260;20.822;2022-09-06T00:34:15;9.35;;;5.07;;
52776;SDS011;38656;54.260;20.822;2022-09-06T00:36:41;6.03;;;3.97;;
52776;SDS011;38656;54.260;20.822;2022-09-06T00:39:07;4.85;;;3.83;;
52776;SDS011;38656;54.260;20.822;2022-09-06T00:41:33;4.03;;;2.67;;
52776;SDS011;38656;54.260;20.822;2022-09-06T00:43:59;3.85;;;2.85;;
52776;SDS011;38656;54.260;20.822;2022-09-06T00:46:26;6.95;;;3.72;;
52776;SDS011;38656;54.260;20.822;2022-09-06T00:49:01;8.52;;;5.75;;
52776;SDS011;38656;54.260;20.822;2022-09-06T00:51:28;6.43;;;5.82;;
52776;SDS011;38656;54.260;20.822;2022-09-06T00:53:55;6.85;;;6.25;;
52776;SDS011;38656;54.260;20.822;2022-09-06T00:56:21;7.35;;;6.65;;
52776;SDS011;38656;54.260;20.822;2022-09-06T00:58:48;6.57;;;5.95;;
52776;SDS011;38656;54.260;20.822;2022-09-06T01:01:14;5.50;;;5.00;;
52776;SDS011;38656;54.260;20.822;2022-09-06T01:03:40;5.25;;;3.88;;
52776;SDS011;38656;54.260;20.822;2022-09-06T01:16:31;3.15;;;2.38;;
52776;SDS011;38656;54.260;20.822;2022-09-06T01:29:04;3.08;;;2.55;;
52776;SDS011;38656;54.260;20.822;2022-09-06T01:31:34;7.00;;;2.67;;
52776;SDS011;38656;54.260;20.822;2022-09-06T01:36:31;3.33;;;2.63;;
52776;SDS011;38656;54.260;20.822;2022-09-06T01:38:59;2.33;;;2.17;;
52776;SDS011;38656;54.260;20.822;2022-09-06T01:41:25;2.50;;;2.00;;
52776;SDS011;38656;54.260;20.822;2022-09-06T01:43:51;3.90;;;2.47;;
52776;SDS011;38656;54.260;20.822;2022-09-06T01:46:22;2.53;;;2.33;;
52776;SDS011;38656;54.260;20.822;2022-09-06T01:49:02;4.95;;;2.13;;
52776;SDS011;38656;54.260;20.822;2022-09-06T01:51:50;2.65;;;2.45;;
52776;SDS011;38656;54.260;20.822;2022-09-06T01:57:00;2.65;;;2.45;;
52776;SDS011;38656;54.260;20.822;2022-09-06T01:59:39;3.57;;;2.63;;
52776;SDS011;38656;54.260;20.822;2022-09-06T02:02:13;3.17;;;2.88;;
52776;SDS011;38656;54.260;20.822;2022-09-06T02:04:50;4.68;;;2.83;;
52776;SDS011;38656;54.260;20.822;2022-09-06T02:07:19;4.05;;;3.33;;
52776;SDS011;38656;54.260;20.822;2022-09-06T02:09:48;4.53;;;3.55;;
52776;SDS011;38656;54.260;20.822;2022-09-06T02:12:16;6.47;;;3.80;;
52776;SDS011;38656;54.260;20.822;2022-09-06T02:14:46;3.53;;;3.13;;
52776;SDS011;38656;54.260;20.822;2022-09-06T02:17:14;3.75;;;2.40;;
52776;SDS011;38656;54.260;20.822;2022-09-06T02:19:43;2.80;;;2.60;;
52776;SDS011;38656;54.260;20.822;2022-09-06T02:22:11;2.25;;;2.05;;
52776;SDS011;38656;54.260;20.822;2022-09-06T02:24:39;2.38;;;1.80;;
52776;SDS011;38656;54.260;20.822;2022-09-06T02:27:07;2.55;;;2.35;;
52776;SDS011;38656;54.260;20.822;2022-09-06T02:29:33;4.80;;;3.78;;
52776;SDS011;38656;54.260;20.822;2022-09-06T02:32:19;3.25;;;2.50;;
52776;SDS011;38656;54.260;20.822;2022-09-06T02:34:46;4.82;;;2.35;;
52776;SDS011;38656;54.260;20.822;2022-09-06T02:37:12;2.83;;;2.35;;
52776;SDS011;38656;54.260;20.822;2022-09-06T02:39:39;2.97;;;2.67;;
52776;SDS011;38656;54.260;20.822;2022-09-06T02:42:07;2.97;;;2.33;;
52776;SDS011;38656;54.260;20.822;2022-09-06T02:44:34;7.30;;;2.88;;
52776;SDS011;38656;54.260;20.822;2022-09-06T02:47:00;4.60;;;3.42;;
52776;SDS011;38656;54.260;20.822;2022-09-06T02:49:27;3.17;;;2.83;;
52776;SDS011;38656;54.260;20.822;2022-09-06T02:51:54;5.10;;;2.75;;
52776;SDS011;38656;54.260;20.822;2022-09-06T02:54:21;2.97;;;2.38;;
52776;SDS011;38656;54.260;20.822;2022-09-06T02:56:47;2.85;;;2.60;;
52776;SDS011;38656;54.260;20.822;2022-09-06T02:59:13;2.97;;;2.55;;
52776;SDS011;38656;54.260;20.822;2022-09-06T03:01:39;2.88;;;2.40;;
52776;SDS011;38656;54.260;20.822;2022-09-06T03:04:05;6.10;;;2.30;;
52776;SDS011;38656;54.260;20.822;2022-09-06T03:06:31;2.85;;;2.60;;
52776;SDS011;38656;54.260;20.822;2022-09-06T03:08:57;4.25;;;2.78;;
52776;SDS011;38656;54.260;20.822;2022-09-06T03:11:24;5.47;;;3.08;;
52776;SDS011;38656;54.260;20.822;2022-09-06T03:13:50;4.45;;;2.85;;
52776;SDS011;38656;54.260;20.822;2022-09-06T03:16:16;5.70;;;3.00;;
52776;SDS011;38656;54.260;20.822;2022-09-06T03:18:43;4.22;;;2.80;;
52776;SDS011;38656;54.260;20.822;2022-09-06T03:21:09;3.45;;;2.25;;
52776;SDS011;38656;54.260;20.822;2022-09-06T03:23:35;2.90;;;2.53;;
52776;SDS011;38656;54.260;20.822;2022-09-06T03:26:03;4.55;;;2.47;;
52776;SDS011;38656;54.260;20.822;2022-09-06T03:28:29;2.70;;;2.30;;
52776;SDS011;38656;54.260;20.822;2022-09-06T03:30:55;3.28;;;2.80;;
52776;SDS011;38656;54.260;20.822;2022-09-06T03:33:21;3.72;;;2.40;;
52776;SDS011;38656;54.260;20.822;2022-09-06T03:35:51;3.63;;;2.97;;
52776;SDS011;38656;54.260;20.822;2022-09-06T03:38:18;2.80;;;2.60;;
52776;SDS011;38656;54.260;20.822;2022-09-06T03:40:45;5.78;;;2.60;;
52776;SDS011;38656;54.260;20.822;2022-09-06T03:43:11;8.95;;;3.00;;
52776;SDS011;38656;54.260;20.822;2022-09-06T03:45:37;5.90;;;3.38;;
52776;SDS011;38656;54.260;20.822;2022-09-06T03:48:03;3.85;;;2.90;;
52776;SDS011;38656;54.260;20.822;2022-09-06T03:50:29;3.17;;;2.72;;
52776;SDS011;38656;54.260;20.822;2022-09-06T03:52:55;2.75;;;2.42;;
52776;SDS011;38656;54.260;20.822;2022-09-06T03:55:21;3.38;;;3.08;;
52776;SDS011;38656;54.260;20.822;2022-09-06T03:57:47;4.32;;;2.60;;
52776;SDS011;38656;54.260;20.822;2022-09-06T04:00:13;4.70;;;2.70;;
52776;SDS011;38656;54.260;20.822;2022-09-06T04:02:40;3.03;;;2.58;;
52776;SDS011;38656;54.260;20.822;2022-09-06T04:05:06;5.82;;;3.33;;
52776;SDS011;38656;54.260;20.822;2022-09-06T04:07:32;3.60;;;3.15;;
52776;SDS011;38656;54.260;20.822;2022-09-06T04:09:58;5.15;;;2.88;;
52776;SDS011;38656;54.260;20.822;2022-09-06T04:12:24;6.45;;;3.05;;
52776;SDS011;38656;54.260;20.822;2022-09-06T04:14:50;2.95;;;2.75;;
52776;SDS011;38656;54.260;20.822;2022-09-06T04:17:16;8.38;;;3.83;;
52776;SDS011;38656;54.260;20.822;2022-09-06T04:19:42;6.82;;;3.28;;
52776;SDS011;38656;54.260;20.822;2022-09-06T04:22:08;4.07;;;3.63;;
52776;SDS011;38656;54.260;20.822;2022-09-06T04:24:34;3.80;;;3.28;;
52776;SDS011;38656;54.260;20.822;2022-09-06T04:27:00;5.15;;;4.20;;
52776;SDS011;38656;54.260;20.822;2022-09-06T04:29:26;4.20;;;3.50;;
52776;SDS011;38656;54.260;20.822;2022-09-06T04:31:52;28.55;;;16.70;;
52776;SDS011;38656;54.260;20.822;2022-09-06T04:34:18;13.43;;;11.55;;
52776;SDS011;38656;54.260;20.822;2022-09-06T04:36:44;18.10;;;15.18;;
52776;SDS011;38656;54.260;20.822;2022-09-06T04:39:10;21.40;;;17.15;;
52776;SDS011;38656;54.260;20.822;2022-09-06T04:41:36;18.60;;;14.27;;
52776;SDS011;38656;54.260;20.822;2022-09-06T04:44:02;19.00;;;15.50;;
52776;SDS011;38656;54.260;20.822;2022-09-06T04:46:29;18.80;;;12.13;;
52776;SDS011;38656;54.260;20.822;2022-09-06T04:48:55;13.23;;;7.13;;
52776;SDS011;38656;54.260;20.822;2022-09-06T04:51:22;12.40;;;9.85;;
52776;SDS011;38656;54.260;20.822;2022-09-06T04:53:49;17.30;;;9.85;;
52776;SDS011;38656;54.260;20.822;2022-09-06T04:56:19;17.42;;;8.70;;
52776;SDS011;38656;54.260;20.822;2022-09-06T04:58:46;9.07;;;7.82;;
52776;SDS011;38656;54.260;20.822;2022-09-06T05:01:13;18.77;;;11.85;;
52776;SDS011;38656;54.260;20.822;2022-09-06T05:03:39;16.45;;;13.50;;
52776;SDS011;38656;54.260;20.822;2022-09-06T05:06:09;20.35;;;14.10;;
52776;SDS011;38656;54.260;20.822;2022-09-06T05:08:36;22.95;;;16.02;;
52776;SDS011;38656;54.260;20.822;2022-09-06T05:11:02;23.02;;;20.58;;
52776;SDS011;38656;54.260;20.822;2022-09-06T05:13:28;23.65;;;21.48;;
52776;SDS011;38656;54.260;20.822;2022-09-06T05:15:55;27.13;;;24.25;;
52776;SDS011;38656;54.260;20.822;2022-09-06T05:18:21;34.97;;;23.40;;
52776;SDS011;38656;54.260;20.822;2022-09-06T05:20:50;29.25;;;19.98;;
52776;SDS011;38656;54.260;20.822;2022-09-06T05:23:16;21.00;;;16.75;;
52776;SDS011;38656;54.260;20.822;2022-09-06T05:25:42;17.92;;;13.15;;
52776;SDS011;38656;54.260;20.822;2022-09-06T05:28:08;15.77;;;12.38;;
52776;SDS011;38656;54.260;20.822;2022-09-06T05:30:34;18.20;;;11.13;;
52776;SDS011;38656;54.260;20.822;2022-09-06T05:33:01;20.75;;;10.68;;
52776;SDS011;38656;54.260;20.822;2022-09-06T05:35:27;15.10;;;11.18;;
52776;SDS011;38656;54.260;20.822;2022-09-06T05:37:53;28.50;;;20.02;;
52776;SDS011;38656;54.260;20.822;2022-09-06T05:40:19;21.17;;;17.50;;
52776;SDS011;38656;54.260;20.822;2022-09-06T05:42:45;19.10;;;15.05;;
52776;SDS011;38656;54.260;20.822;2022-09-06T05:45:11;7.45;;;6.07;;
52776;SDS011;38656;54.260;20.822;2022-09-06T05:47:37;4.55;;;3.78;;
52776;SDS011;38656;54.260;20.822;2022-09-06T05:50:03;3.35;;;2.90;;
52776;SDS011;38656;54.260;20.822;2022-09-06T05:52:30;6.22;;;2.33;;
52776;SDS011;38656;54.260;20.822;2022-09-06T05:54:59;4.47;;;2.78;;
52776;SDS011;38656;54.260;20.822;2022-09-06T05:57:25;4.50;;;3.33;;
52776;SDS011;38656;54.260;20.822;2022-09-06T05:59:51;8.95;;;2.58;;
52776;SDS011;38656;54.260;20.822;2022-09-06T06:02:22;3.83;;;2.70;;
52776;SDS011;38656;54.260;20.822;2022-09-06T06:04:48;7.32;;;1.80;;
52776;SDS011;38656;54.260;20.822;2022-09-06T06:07:16;2.50;;;1.77;;
52776;SDS011;38656;54.260;20.822;2022-09-06T06:09:42;2.30;;;1.60;;
52776;SDS011;38656;54.260;20.822;2022-09-06T06:12:08;3.05;;;1.70;;
52776;SDS011;38656;54.260;20.822;2022-09-06T06:14:34;2.50;;;1.85;;
52776;SDS011;38656;54.260;20.822;2022-09-06T06:17:00;4.60;;;1.52;;
52776;SDS011;38656;54.260;20.822;2022-09-06T06:19:27;3.28;;;1.20;;
52776;SDS011;38656;54.260;20.822;2022-09-06T06:22:08;2.67;;;1.50;;
52776;SDS011;38656;54.260;20.822;2022-09-06T06:24:37;7.85;;;2.05;;
52776;SDS011;38656;54.260;20.822;2022-09-06T06:27:07;3.90;;;1.60;;
52776;SDS011;38656;54.260;20.822;2022-09-06T06:29:34;3.33;;;1.60;;
52776;SDS011;38656;54.260;20.822;2022-09-06T06:32:00;7.20;;;1.80;;
52776;SDS011;38656;54.260;20.822;2022-09-06T06:34:26;3.97;;;1.73;;
52776;SDS011;38656;54.260;20.822;2022-09-06T06:36:52;2.35;;;1.65;;
52776;SDS011;38656;54.260;20.822;2022-09-06T06:39:18;4.55;;;1.67;;
52776;SDS011;38656;54.260;20.822;2022-09-06T06:41:44;9.52;;;4.00;;
52776;SDS011;38656;54.260;20.822;2022-09-06T06:44:11;7.28;;;2.65;;
52776;SDS011;38656;54.260;20.822;2022-09-06T06:46:38;2.75;;;2.33;;
52776;SDS011;38656;54.260;20.822;2022-09-06T06:49:05;2.97;;;2.30;;
52776;SDS011;38656;54.260;20.822;2022-09-06T06:51:32;4.18;;;2.40;;
52776;SDS011;38656;54.260;20.822;2022-09-06T06:54:01;5.30;;;2.20;;
52776;SDS011;38656;54.260;20.822;2022-09-06T06:56:28;5.80;;;2.90;;
52776;SDS011;38656;54.260;20.822;2022-09-06T06:59:02;3.28;;;2.50;;
52776;SDS011;38656;54.260;20.822;2022-09-06T07:01:29;5.18;;;2.67;;
52776;SDS011;38656;54.260;20.822;2022-09-06T07:03:56;3.45;;;3.15;;
52776;SDS011;38656;54.260;20.822;2022-09-06T07:06:22;4.50;;;3.10;;
52776;SDS011;38656;54.260;20.822;2022-09-06T07:08:55;3.85;;;3.28;;
52776;SDS011;38656;54.260;20.822;2022-09-06T07:11:24;4.70;;;1.83;;
52776;SDS011;38656;54.260;20.822;2022-09-06T07:13:50;2.67;;;2.30;;
52776;SDS011;38656;54.260;20.822;2022-09-06T07:16:21;2.00;;;1.70;;
52776;SDS011;38656;54.260;20.822;2022-09-06T07:18:51;1.80;;;1.70;;
52776;SDS011;38656;54.260;20.822;2022-09-06T07:21:22;3.78;;;3.22;;
52776;SDS011;38656;54.260;20.822;2022-09-06T07:23:50;1.83;;;1.40;;
52776;SDS011;38656;54.260;20.822;2022-09-06T07:26:18;1.77;;;1.60;;
52776;SDS011;38656;54.260;20.822;2022-09-06T07:28:44;5.28;;;3.15;;
52776;SDS011;38656;54.260;20.822;2022-09-06T07:31:11;4.30;;;1.88;;
52776;SDS011;38656;54.260;20.822;2022-09-06T07:33:37;1.63;;;1.52;;
52776;SDS011;38656;54.260;20.822;2022-09-06T07:36:04;1.98;;;0.82;;
52776;SDS011;38656;54.260;20.822;2022-09-06T07:38:31;2.45;;;0.90;;
52776;SDS011;38656;54.260;20.822;2022-09-06T07:40:58;1.95;;;1.63;;
52776;SDS011;38656;54.260;20.822;2022-09-06T07:43:25;2.60;;;1.30;;
52776;SDS011;38656;54.260;20.822;2022-09-06T07:46:01;0.85;;;0.80;;
52776;SDS011;38656;54.260;20.822;2022-09-06T07:48:28;0.77;;;0.77;;
52776;SDS011;38656;54.260;20.822;2022-09-06T07:50:54;1.70;;;0.90;;
52776;SDS011;38656;54.260;20.822;2022-09-06T07:53:20;1.27;;;0.90;;
52776;SDS011;38656;54.260;20.822;2022-09-06T07:58:22;1.33;;;0.80;;
52776;SDS011;38656;54.260;20.822;2022-09-06T08:00:48;1.10;;;1.00;;
52776;SDS011;38656;54.260;20.822;2022-09-06T08:03:14;0.85;;;0.70;;
52776;SDS011;38656;54.260;20.822;2022-09-06T08:05:40;0.63;;;0.63;;
52776;SDS011;38656;54.260;20.822;2022-09-06T08:08:06;1.00;;;0.90;;
52776;SDS011;38656;54.260;20.822;2022-09-06T08:10:32;1.45;;;0.90;;
52776;SDS011;38656;54.260;20.822;2022-09-06T08:12:59;5.25;;;0.98;;
52776;SDS011;38656;54.260;20.822;2022-09-06T08:15:25;2.10;;;0.90;;
52776;SDS011;38656;54.260;20.822;2022-09-06T08:17:55;0.60;;;0.60;;
52776;SDS011;38656;54.260;20.822;2022-09-06T08:20:21;1.15;;;0.60;;
52776;SDS011;38656;54.260;20.822;2022-09-06T08:22:47;2.97;;;0.63;;
52776;SDS011;38656;54.260;20.822;2022-09-06T08:25:13;2.25;;;0.73;;
52776;SDS011;38656;54.260;20.822;2022-09-06T08:27:39;1.52;;;1.30;;
52776;SDS011;38656;54.260;20.822;2022-09-06T08:30:06;1.15;;;1.00;;
52776;SDS011;38656;54.260;20.822;2022-09-06T08:32:32;1.25;;;1.02;;
52776;SDS011;38656;54.260;20.822;2022-09-06T08:35:02;0.80;;;0.80;;
52776;SDS011;38656;54.260;20.822;2022-09-06T08:37:28;4.93;;;0.70;;
52776;SDS011;38656;54.260;20.822;2022-09-06T08:39:54;4.18;;;1.13;;
52776;SDS011;38656;54.260;20.822;2022-09-06T08:42:20;4.07;;;0.75;;
52776;SDS011;38656;54.260;20.822;2022-09-06T08:44:49;0.80;;;0.80;;
52776;SDS011;38656;54.260;20.822;2022-09-06T08:47:17;3.17;;;0.88;;
52776;SDS011;38656;54.260;20.822;2022-09-06T08:50:07;1.38;;;0.70;;
52776;SDS011;38656;54.260;20.822;2022-09-06T09:04:12;0.82;;;0.70;;
52776;SDS011;38656;54.260;20.822;2022-09-06T09:06:39;1.10;;;0.77;;
52776;SDS011;38656;54.260;20.822;2022-09-06T09:09:06;1.95;;;0.63;;
52776;SDS011;38656;54.260;20.822;2022-09-06T09:11:33;0.55;;;0.45;;
52776;SDS011;38656;54.260;20.822;2022-09-06T09:17:15;0.50;;;0.50;;
52776;SDS011;38656;54.260;20.822;2022-09-06T09:19:44;0.70;;;0.70;;
52776;SDS011;38656;54.260;20.822;2022-09-06T09:22:10;0.73;;;0.73;;
52776;SDS011;38656;54.260;20.822;2022-09-06T09:24:37;0.70;;;0.68;;
52776;SDS011;38656;54.260;20.822;2022-09-06T09:27:10;2.65;;;0.70;;
52776;SDS011;38656;54.260;20.822;2022-09-06T09:32:03;4.47;;;0.80;;
52776;SDS011;38656;54.260;20.822;2022-09-06T09:39:37;0.77;;;0.52;;
52776;SDS011;38656;54.260;20.822;2022-09-06T09:42:04;0.70;;;0.70;;
52776;SDS011;38656;54.260;20.822;2022-09-06T09:44:30;0.93;;;0.50;;
52776;SDS011;38656;54.260;20.822;2022-09-06T09:46:56;2.80;;;2.00;;
52776;SDS011;38656;54.260;20.822;2022-09-06T09:54:32;1.40;;;1.00;;
52776;SDS011;38656;54.260;20.822;2022-09-06T09:57:00;7.05;;;0.70;;
52776;SDS011;38656;54.260;20.822;2022-09-06T09:59:45;2.05;;;0.90;;
52776;SDS011;38656;54.260;20.822;2022-09-06T10:02:44;0.85;;;0.70;;
52776;SDS011;38656;54.260;20.822;2022-09-06T10:07:30;0.73;;;0.70;;
52776;SDS011;38656;54.260;20.822;2022-09-06T10:09:58;1.50;;;0.75;;
52776;SDS011;38656;54.260;20.822;2022-09-06T10:12:28;4.10;;;1.05;;
52776;SDS011;38656;54.260;20.822;2022-09-06T10:14:55;1.10;;;0.80;;
52776;SDS011;38656;54.260;20.822;2022-09-06T10:17:29;0.60;;;0.60;;
52776;SDS011;38656;54.260;20.822;2022-09-06T10:19:55;0.70;;;0.60;;
52776;SDS011;38656;54.260;20.822;2022-09-06T10:22:25;1.48;;;0.70;;
52776;SDS011;38656;54.260;20.822;2022-09-06T10:27:36;0.77;;;0.77;;
52776;SDS011;38656;54.260;20.822;2022-09-06T10:30:06;0.90;;;0.90;;
52776;SDS011;38656;54.260;20.822;2022-09-06T10:32:41;0.70;;;0.70;;
52776;SDS011;38656;54.260;20.822;2022-09-06T10:43:15;1.02;;;0.50;;
52776;SDS011;38656;54.260;20.822;2022-09-06T10:45:57;1.23;;;0.95;;
52776;SDS011;38656;54.260;20.822;2022-09-06T10:48:33;0.50;;;0.50;;
52776;SDS011;38656;54.260;20.822;2022-09-06T10:51:03;0.77;;;0.70;;
52776;SDS011;38656;54.260;20.822;2022-09-06T10:53:31;0.63;;;0.63;;
52776;SDS011;38656;54.260;20.822;2022-09-06T10:58:30;0.80;;;0.68;;
52776;SDS011;38656;54.260;20.822;2022-09-06T11:00:56;1.67;;;1.33;;
52776;SDS011;38656;54.260;20.822;2022-09-06T11:03:29;1.02;;;0.80;;
52776;SDS011;38656;54.260;20.822;2022-09-06T11:06:04;2.35;;;0.93;;
52776;SDS011;38656;54.260;20.822;2022-09-06T11:08:37;0.50;;;0.50;;
52776;SDS011;38656;54.260;20.822;2022-09-06T11:11:07;0.95;;;0.55;;
52776;SDS011;38656;54.260;20.822;2022-09-06T11:13:34;3.20;;;0.80;;
52776;SDS011;38656;54.260;20.822;2022-09-06T11:24:02;0.95;;;0.93;;
52776;SDS011;38656;54.260;20.822;2022-09-06T11:26:36;0.80;;;0.80;;
52776;SDS011;38656;54.260;20.822;2022-09-06T11:29:17;3.22;;;0.88;;
52776;SDS011;38656;54.260;20.822;2022-09-06T11:34:37;0.90;;;0.70;;
52776;SDS011;38656;54.260;20.822;2022-09-06T11:37:05;0.80;;;0.70;;
52776;SDS011;38656;54.260;20.822;2022-09-06T11:39:36;0.60;;;0.60;;
52776;SDS011;38656;54.260;20.822;2022-09-06T11:42:09;0.40;;;0.40;;
52776;SDS011;38656;54.260;20.822;2022-09-06T11:47:39;1.15;;;0.90;;
52776;SDS011;38656;54.260;20.822;2022-09-06T11:55:38;0.70;;;0.70;;
52776;SDS011;38656;54.260;20.822;2022-09-06T11:58:07;1.45;;;0.70;;
52776;SDS011;38656;54.260;20.822;2022-09-06T12:00:34;0.57;;;0.57;;
52776;SDS011;38656;54.260;20.822;2022-09-06T12:03:02;3.70;;;0.90;;
52776;SDS011;38656;54.260;20.822;2022-09-06T12:05:33;3.13;;;0.70;;
52776;SDS011;38656;54.260;20.822;2022-09-06T12:11:00;0.63;;;0.63;;
52776;SDS011;38656;54.260;20.822;2022-09-06T12:16:12;0.77;;;0.70;;
52776;SDS011;38656;54.260;20.822;2022-09-06T12:21:32;0.80;;;0.80;;
52776;SDS011;38656;54.260;20.822;2022-09-06T12:24:01;0.70;;;0.70;;
52776;SDS011;38656;54.260;20.822;2022-09-06T12:26:45;1.65;;;0.90;;
52776;SDS011;38656;54.260;20.822;2022-09-06T12:29:12;1.33;;;0.80;;
52776;SDS011;38656;54.260;20.822;2022-09-06T12:31:39;0.70;;;0.70;;
52776;SDS011;38656;54.260;20.822;2022-09-06T12:34:12;0.50;;;0.50;;
52776;SDS011;38656;54.260;20.822;2022-09-06T12:39:09;1.20;;;0.88;;
52776;SDS011;38656;54.260;20.822;2022-09-06T12:41:40;0.70;;;0.70;;
52776;SDS011;38656;54.260;20.822;2022-09-06T12:44:09;0.85;;;0.50;;
52776;SDS011;38656;54.260;20.822;2022-09-06T12:46:42;2.10;;;1.08;;
52776;SDS011;38656;54.260;20.822;2022-09-06T12:49:10;1.20;;;0.90;;
52776;SDS011;38656;54.260;20.822;2022-09-06T12:51:38;0.57;;;0.57;;
52776;SDS011;38656;54.260;20.822;2022-09-06T12:54:26;0.63;;;0.63;;
52776;SDS011;38656;54.260;20.822;2022-09-06T12:57:10;3.03;;;1.42;;
52776;SDS011;38656;54.260;20.822;2022-09-06T12:59:45;1.23;;;0.70;;
52776;SDS011;38656;54.260;20.822;2022-09-06T13:02:15;1.00;;;0.65;;
52776;SDS011;38656;54.260;20.822;2022-09-06T13:04:47;0.70;;;0.70;;
52776;SDS011;38656;54.260;20.822;2022-09-06T13:07:17;5.17;;;4.77;;
52776;SDS011;38656;54.260;20.822;2022-09-06T13:09:45;3.88;;;1.50;;
52776;SDS011;38656;54.260;20.822;2022-09-06T13:12:32;0.60;;;0.60;;
52776;SDS011;38656;54.260;20.822;2022-09-06T13:20:42;0.60;;;0.60;;
52776;SDS011;38656;54.260;20.822;2022-09-06T13:23:09;0.75;;;0.60;;
52776;SDS011;38656;54.260;20.822;2022-09-06T13:25:46;1.02;;;0.65;;
52776;SDS011;38656;54.260;20.822;2022-09-06T13:28:22;0.80;;;0.52;;
52776;SDS011;38656;54.260;20.822;2022-09-06T13:30:58;3.30;;;0.80;;
52776;SDS011;38656;54.260;20.822;2022-09-06T13:33:27;2.80;;;1.10;;
52776;SDS011;38656;54.260;20.822;2022-09-06T13:38:34;1.50;;;0.68;;
52776;SDS011;38656;54.260;20.822;2022-09-06T13:41:05;0.95;;;0.88;;
52776;SDS011;38656;54.260;20.822;2022-09-06T13:43:39;2.97;;;0.70;;
52776;SDS011;38656;54.260;20.822;2022-09-06T13:46:07;0.80;;;0.80;;
52776;SDS011;38656;54.260;20.822;2022-09-06T13:48:34;1.23;;;0.75;;
52776;SDS011;38656;54.260;20.822;2022-09-06T13:51:06;2.53;;;0.55;;
52776;SDS011;38656;54.260;20.822;2022-09-06T13:53:32;1.45;;;0.70;;
52776;SDS011;38656;54.260;20.822;2022-09-06T13:55:59;1.08;;;0.80;;
52776;SDS011;38656;54.260;20.822;2022-09-06T13:58:25;1.52;;;0.75;;
52776;SDS011;38656;54.260;20.822;2022-09-06T14:00:52;1.05;;;1.05;;
52776;SDS011;38656;54.260;20.822;2022-09-06T14:03:20;1.60;;;1.48;;
52776;SDS011;38656;54.260;20.822;2022-09-06T14:05:46;1.65;;;1.55;;
52776;SDS011;38656;54.260;20.822;2022-09-06T14:08:12;2.63;;;0.98;;
52776;SDS011;38656;54.260;20.822;2022-09-06T14:10:38;1.30;;;1.00;;
52776;SDS011;38656;54.260;20.822;2022-09-06T14:13:05;1.20;;;0.93;;
52776;SDS011;38656;54.260;20.822;2022-09-06T14:15:31;3.08;;;1.65;;
52776;SDS011;38656;54.260;20.822;2022-09-06T14:17:58;1.70;;;1.40;;
52776;SDS011;38656;54.260;20.822;2022-09-06T14:20:24;3.92;;;1.75;;
52776;SDS011;38656;54.260;20.822;2022-09-06T14:22:50;0.60;;;0.60;;
52776;SDS011;38656;54.260;20.822;2022-09-06T14:25:16;5.40;;;1.10;;
52776;SDS011;38656;54.260;20.822;2022-09-06T14:27:42;9.07;;;6.28;;
52776;SDS011;38656;54.260;20.822;2022-09-06T14:30:08;4.65;;;3.17;;
52776;SDS011;38656;54.260;20.822;2022-09-06T14:32:34;0.75;;;0.70;;
52776;SDS011;38656;54.260;20.822;2022-09-06T14:35:00;1.88;;;1.13;;
52776;SDS011;38656;54.260;20.822;2022-09-06T14:37:29;3.38;;;1.48;;
52776;SDS011;38656;54.260;20.822;2022-09-06T14:39:55;1.48;;;0.82;;
52776;SDS011;38656;54.260;20.822;2022-09-06T14:42:21;9.77;;;6.70;;
52776;SDS011;38656;54.260;20.822;2022-09-06T14:44:49;0.90;;;0.90;;
52776;SDS011;38656;54.260;20.822;2022-09-06T14:47:15;0.85;;;0.70;;
52776;SDS011;38656;54.260;20.822;2022-09-06T14:49:41;2.25;;;1.67;;
52776;SDS011;38656;54.260;20.822;2022-09-06T14:52:07;5.90;;;4.25;;
52776;SDS011;38656;54.260;20.822;2022-09-06T14:54:33;1.75;;;1.50;;
52776;SDS011;38656;54.260;20.822;2022-09-06T14:57:00;4.05;;;0.98;;
52776;SDS011;38656;54.260;20.822;2022-09-06T14:59:26;0.52;;;0.50;;
52776;SDS011;38656;54.260;20.822;2022-09-06T15:01:52;1.80;;;0.70;;
52776;SDS011;38656;54.260;20.822;2022-09-06T15:04:18;0.50;;;0.50;;
52776;SDS011;38656;54.260;20.822;2022-09-06T15:06:44;2.05;;;0.52;;
52776;SDS011;38656;54.260;20.822;2022-09-06T15:09:12;0.90;;;0.90;;
52776;SDS011;38656;54.260;20.822;2022-09-06T15:11:46;5.35;;;1.10;;
52776;SDS011;38656;54.260;20.822;2022-09-06T15:14:16;1.40;;;0.82;;
52776;SDS011;38656;54.260;20.822;2022-09-06T15:16:43;5.88;;;3.33;;
52776;SDS011;38656;54.260;20.822;2022-09-06T15:19:09;1.92;;;1.10;;
52776;SDS011;38656;54.260;20.822;2022-09-06T15:21:35;18.63;;;14.02;;
52776;SDS011;38656;54.260;20.822;2022-09-06T15:24:02;10.40;;;7.28;;
52776;SDS011;38656;54.260;20.822;2022-09-06T15:26:29;2.88;;;1.25;;
52776;SDS011;38656;54.260;20.822;2022-09-06T15:28:57;1.50;;;0.85;;
52776;SDS011;38656;54.260;20.822;2022-09-06T15:31:23;5.38;;;0.95;;
52776;SDS011;38656;54.260;20.822;2022-09-06T15:33:49;1.38;;;1.00;;
52776;SDS011;38656;54.260;20.822;2022-09-06T15:36:17;1.30;;;1.05;;
52776;SDS011;38656;54.260;20.822;2022-09-06T15:38:44;0.77;;;0.63;;
52776;SDS011;38656;54.260;20.822;2022-09-06T15:41:15;0.60;;;0.60;;
52776;SDS011;38656;54.260;20.822;2022-09-06T15:43:42;1.35;;;0.90;;
52776;SDS011;38656;54.260;20.822;2022-09-06T15:46:11;1.38;;;0.70;;
52776;SDS011;38656;54.260;20.822;2022-09-06T15:48:42;1.05;;;0.82;;
52776;SDS011;38656;54.260;20.822;2022-09-06T15:51:09;0.80;;;0.80;;
52776;SDS011;38656;54.260;20.822;2022-09-06T15:53:36;2.00;;;0.80;;
52776;SDS011;38656;54.260;20.822;2022-09-06T15:56:02;1.77;;;1.55;;
52776;SDS011;38656;54.260;20.822;2022-09-06T15:58:29;1.63;;;0.80;;
52776;SDS011;38656;54.260;20.822;2022-09-06T16:01:02;2.13;;;0.80;;
52776;SDS011;38656;54.260;20.822;2022-09-06T16:03:28;0.80;;;0.80;;
52776;SDS011;38656;54.260;20.822;2022-09-06T16:06:01;2.05;;;1.10;;
52776;SDS011;38656;54.260;20.822;2022-09-06T16:10:55;1.20;;;1.10;;
52776;SDS011;38656;54.260;20.822;2022-09-06T16:13:21;1.38;;;0.98;;
52776;SDS011;38656;54.260;20.822;2022-09-06T16:15:54;4.28;;;2.53;;
52776;SDS011;38656;54.260;20.822;2022-09-06T16:18:20;2.72;;;2.00;;
52776;SDS011;38656;54.260;20.822;2022-09-06T16:20:47;3.60;;;2.58;;
52776;SDS011;38656;54.260;20.822;2022-09-06T16:23:13;2.78;;;1.92;;
52776;SDS011;38656;54.260;20.822;2022-09-06T16:25:40;4.53;;;4.15;;
52776;SDS011;38656;54.260;20.822;2022-09-06T16:28:06;5.05;;;3.83;;